Time;durP1;ratioP1;P1;durP2;ratioP2;P2;SDS_P1;SDS_P2;PMS_P1;PMS_P2;Temp;Humidity;BMP_temperature;BMP_pressure;BME280_temperature;BME280_humidity;BME280_pressure;Samples;Min_cycle;Max_cycle;Signal;HPM_P1;HPM_P2
2021/01/10 00:00:21;;;;;;;10.73;5.07;;;5.60;82.10;;;;;;5033648;28;20429;-53
2021/01/10 00:02:48;;;;;;;11.98;5.55;;;5.70;82.10;;;;;;5033043;28;20069;-53
2021/01/10 00:05:28;;;;;;;10.65;5.38;;;5.70;82.10;;;;;;5028844;28;20034;-52
2021/01/10 00:07:55;;;;;;;11.65;5.45;;;5.60;82.10;;;;;;5013428;28;20455;-53
2021/01/10 00:10:20;;;;;;;10.68;5.05;;;5.70;82.10;;;;;;5013707;28;20045;-53
2021/01/10 00:12:46;;;;;;;9.93;5.22;;;5.70;82.10;;;;;;5013417;28;20042;-53
2021/01/10 00:15:15;;;;;;;16.35;6.32;;;5.60;82.10;;;;;;5013368;28;20025;-52
2021/01/10 00:17:41;;;;;;;11.27;5.25;;;5.70;82.10;;;;;;5013486;28;20384;-53
2021/01/10 00:20:08;;;;;;;14.93;5.05;;;5.70;82.10;;;;;;5013585;28;20034;-53
2021/01/10 00:22:34;;;;;;;14.05;5.13;;;5.70;82.10;;;;;;5012972;28;20026;-53
2021/01/10 00:25:00;;;;;;;8.52;4.47;;;5.70;82.20;;;;;;5013438;28;20022;-53
2021/01/10 00:27:26;;;;;;;13.02;5.07;;;5.70;82.10;;;;;;5013359;28;20052;-53
2021/01/10 00:29:52;;;;;;;12.55;5.20;;;5.70;82.10;;;;;;5013364;28;20036;-52
2021/01/10 00:32:18;;;;;;;10.05;5.03;;;5.70;82.10;;;;;;5028698;28;20026;-52
2021/01/10 00:34:44;;;;;;;12.55;5.60;;;5.70;82.20;;;;;;5033085;28;20402;-53
2021/01/10 00:37:14;;;;;;;11.27;5.72;;;5.70;82.20;;;;;;5032767;28;20026;-53
2021/01/10 00:39:41;;;;;;;12.98;5.30;;;5.70;82.10;;;;;;5033275;28;20029;-52
2021/01/10 00:42:11;;;;;;;11.02;5.00;;;5.60;82.10;;;;;;5032667;28;20474;-52
2021/01/10 00:44:37;;;;;;;10.75;4.53;;;5.60;82.10;;;;;;5033213;28;20029;-52
2021/01/10 00:47:04;;;;;;;13.10;5.22;;;5.70;82.20;;;;;;5033316;28;20045;-53
2021/01/10 00:49:30;;;;;;;10.90;5.22;;;5.60;82.00;;;;;;5032693;28;20439;-53
2021/01/10 00:51:56;;;;;;;10.05;5.28;;;5.70;82.10;;;;;;5033316;28;20038;-53
2021/01/10 00:54:21;;;;;;;13.63;5.30;;;5.70;82.10;;;;;;5032936;28;20108;-52
2021/01/10 00:56:47;;;;;;;13.48;6.05;;;5.70;82.10;;;;;;5032960;28;20340;-52
2021/01/10 00:59:13;;;;;;;12.30;5.32;;;5.70;82.20;;;;;;5032915;28;20028;-52
2021/01/10 01:01:38;;;;;;;11.73;5.47;;;5.70;82.10;;;;;;5032834;28;20021;-53
2021/01/10 01:04:04;;;;;;;13.60;5.55;;;5.70;82.10;;;;;;5032327;28;20033;-53
2021/01/10 01:06:31;;;;;;;11.43;5.57;;;5.70;82.10;;;;;;5017821;28;20112;-53
2021/01/10 01:08:56;;;;;;;10.18;4.95;;;5.70;82.10;;;;;;5032701;28;20045;-53
2021/01/10 01:11:37;;;;;;;9.32;4.97;;;5.70;82.10;;;;;;5035474;28;20017;-53
2021/01/10 01:14:04;;;;;;;14.57;5.80;;;5.70;82.00;;;;;;5036577;28;20033;-52
2021/01/10 01:16:30;;;;;;;10.98;4.95;;;5.70;82.10;;;;;;5036402;28;20036;-53
2021/01/10 01:18:55;;;;;;;13.32;4.65;;;5.70;82.00;;;;;;5032566;28;20327;-53
2021/01/10 01:21:22;;;;;;;11.30;5.47;;;5.70;82.00;;;;;;5036070;28;20053;-53
2021/01/10 01:23:48;;;;;;;9.65;5.20;;;5.70;82.10;;;;;;5017392;28;20026;-53
2021/01/10 01:26:18;;;;;;;11.48;4.85;;;5.70;82.00;;;;;;5016545;28;20030;-52
2021/01/10 01:28:45;;;;;;;11.30;4.70;;;5.70;82.10;;;;;;5016702;28;20418;-52
2021/01/10 01:31:16;;;;;;;13.05;5.30;;;5.70;82.00;;;;;;5016448;28;20340;-53
2021/01/10 01:33:42;;;;;;;10.05;5.32;;;5.70;82.00;;;;;;5016156;28;20034;-53
2021/01/10 01:36:16;;;;;;;13.63;5.45;;;5.70;82.10;;;;;;5016348;28;20033;-53
2021/01/10 01:38:43;;;;;;;11.25;5.32;;;5.70;82.10;;;;;;5016486;28;20034;-53
2021/01/10 01:41:09;;;;;;;13.73;5.53;;;5.70;82.10;;;;;;5016452;28;20388;-53
2021/01/10 01:43:36;;;;;;;12.25;5.60;;;5.70;82.10;;;;;;5016166;28;20032;-53
2021/01/10 01:46:10;;;;;;;11.60;5.72;;;5.70;82.00;;;;;;5015869;28;20513;-53
2021/01/10 01:48:38;;;;;;;11.05;5.65;;;5.70;82.00;;;;;;5015956;28;20049;-52
2021/01/10 01:51:04;;;;;;;9.93;5.30;;;5.70;82.10;;;;;;5016337;28;20022;-53
2021/01/10 01:53:30;;;;;;;11.95;5.50;;;5.70;82.10;;;;;;5015911;28;20519;-52
2021/01/10 01:55:58;;;;;;;16.88;5.13;;;5.70;82.00;;;;;;5025672;28;20053;-53
2021/01/10 01:58:25;;;;;;;11.60;5.38;;;5.70;81.90;;;;;;5035849;28;20029;-52
2021/01/10 02:00:51;;;;;;;19.48;6.50;;;5.70;81.90;;;;;;5041493;28;20021;-52
2021/01/10 02:03:31;;;;;;;9.68;5.15;;;5.70;82.00;;;;;;5046467;28;20029;-52
2021/01/10 02:06:00;;;;;;;10.10;5.07;;;5.70;82.00;;;;;;5044846;28;20025;-53
2021/01/10 02:08:31;;;;;;;16.73;6.10;;;5.70;82.00;;;;;;5019462;28;20536;-53
2021/01/10 02:10:59;;;;;;;;;;;5.70;82.00;;;;;;5016032;28;20360;-53
2021/01/10 02:13:27;;;;;;;10.45;5.72;;;5.70;82.00;;;;;;5015341;28;19905;-53
2021/01/10 02:15:53;;;;;;;13.25;6.25;;;5.70;82.00;;;;;;5015913;28;20052;-53
2021/01/10 02:18:20;;;;;;;12.98;5.90;;;5.70;82.00;;;;;;5016030;28;20510;-52
2021/01/10 02:20:46;;;;;;;13.07;6.28;;;5.70;82.00;;;;;;5015895;28;20022;-53
2021/01/10 02:23:30;;;;;;;15.85;6.43;;;5.70;82.00;;;;;;5015305;28;20160;-53
2021/01/10 02:25:57;;;;;;;14.30;5.63;;;5.70;82.00;;;;;;5015276;28;20030;-52
2021/01/10 02:28:25;;;;;;;13.57;6.65;;;5.70;82.00;;;;;;5015587;28;20069;-53
2021/01/10 02:30:53;;;;;;;14.20;6.18;;;5.70;82.00;;;;;;5015243;28;20333;-52
2021/01/10 02:33:33;;;;;;;13.85;5.95;;;5.70;82.00;;;;;;5015139;28;20034;-53
2021/01/10 02:36:06;;;;;;;11.88;5.53;;;5.70;82.00;;;;;;5015264;28;20436;-53
2021/01/10 02:38:56;;;;;;;14.68;6.05;;;5.70;82.00;;;;;;5014933;28;20498;-52
2021/01/10 02:41:43;;;;;;;11.27;5.93;;;5.70;82.00;;;;;;5015188;28;20021;-53
2021/01/10 02:44:23;;;;;;;13.48;5.55;;;5.70;82.10;;;;;;5015378;28;20394;-53
2021/01/10 02:46:52;;;;;;;10.88;5.53;;;5.70;82.10;;;;;;5014635;28;20037;-52
2021/01/10 02:49:19;;;;;;;17.45;6.55;;;5.70;82.10;;;;;;5015279;28;20022;-53
2021/01/10 02:51:46;;;;;;;12.63;5.53;;;5.70;82.10;;;;;;5014912;28;20460;-53
2021/01/10 02:54:15;;;;;;;13.93;5.60;;;5.70;82.20;;;;;;5014833;28;20025;-53
2021/01/10 02:56:48;;;;;;;18.33;7.15;;;5.70;82.10;;;;;;5030575;28;20026;-53
2021/01/10 02:59:20;;;;;;;16.95;5.72;;;5.70;82.10;;;;;;5034575;28;20041;-53
2021/01/10 03:01:47;;;;;;;12.35;4.95;;;5.70;82.10;;;;;;5034501;28;20037;-53
2021/01/10 03:04:15;;;;;;;12.65;6.35;;;5.70;82.10;;;;;;5034150;28;20040;-53
2021/01/10 03:06:42;;;;;;;17.20;7.20;;;5.70;82.10;;;;;;5017798;28;20116;-52
2021/01/10 03:09:08;;;;;;;14.50;6.68;;;5.70;82.10;;;;;;5029372;28;20034;-53
2021/01/10 03:11:34;;;;;;;16.65;5.90;;;5.70;82.10;;;;;;5034273;28;20021;-53
2021/01/10 03:14:01;;;;;;;14.75;5.85;;;5.70;82.10;;;;;;5033922;28;20362;-52
2021/01/10 03:16:27;;;;;;;14.45;6.90;;;5.70;82.10;;;;;;5034182;28;20045;-53
2021/01/10 03:18:52;;;;;;;12.43;6.15;;;5.70;82.10;;;;;;5034344;28;20109;-53
2021/01/10 03:21:18;;;;;;;13.32;6.18;;;5.70;82.10;;;;;;5034234;28;20033;-53
2021/01/10 03:23:44;;;;;;;14.82;5.93;;;5.70;82.10;;;;;;5034206;28;20032;-53
2021/01/10 03:26:10;;;;;;;15.00;5.95;;;5.70;82.10;;;;;;5034207;28;20502;-53
2021/01/10 03:28:36;;;;;;;18.77;7.03;;;5.60;82.10;;;;;;5033554;28;20133;-52
2021/01/10 03:31:01;;;;;;;17.23;6.55;;;5.70;82.20;;;;;;5033609;28;20025;-52
2021/01/10 03:33:27;;;;;;;16.60;6.32;;;5.70;82.20;;;;;;5033270;28;20053;-53
2021/01/10 03:35:53;;;;;;;17.15;7.07;;;5.70;82.10;;;;;;5033914;28;20026;-53
2021/01/10 03:38:18;;;;;;;18.35;7.63;;;5.70;82.10;;;;;;5033642;28;20033;-53
2021/01/10 03:40:44;;;;;;;16.45;6.80;;;5.70;82.20;;;;;;5033657;28;20025;-52
2021/01/10 03:43:09;;;;;;;12.40;6.22;;;5.70;82.30;;;;;;5033728;28;20033;-53
2021/01/10 03:45:35;;;;;;;10.02;5.18;;;5.70;82.30;;;;;;5033974;28;20025;-52
2021/01/10 03:48:03;;;;;;;12.50;6.60;;;5.70;82.30;;;;;;5033215;28;20474;-53
2021/01/10 03:50:28;;;;;;;13.57;6.05;;;5.70;82.20;;;;;;5029092;28;20022;-53
2021/01/10 03:52:54;;;;;;;12.45;5.95;;;5.70;82.20;;;;;;5033531;28;20362;-52
2021/01/10 03:55:20;;;;;;;16.70;6.90;;;5.70;82.30;;;;;;5033075;28;20435;-53
2021/01/10 03:57:45;;;;;;;13.23;6.28;;;5.70;82.20;;;;;;5033341;28;20459;-53
2021/01/10 04:00:11;;;;;;;13.02;5.25;;;5.70;82.30;;;;;;5033406;28;20025;-52
2021/01/10 04:02:37;;;;;;;17.27;7.07;;;5.70;82.30;;;;;;5033257;28;20083;-53
2021/01/10 04:05:05;;;;;;;10.93;5.53;;;5.70;82.30;;;;;;5018854;28;20029;-53
2021/01/10 04:07:30;;;;;;;11.88;5.88;;;5.70;82.30;;;;;;5014721;28;20041;-53
2021/01/10 04:09:56;;;;;;;15.20;6.10;;;5.70;82.30;;;;;;5033264;28;20371;-52
2021/01/10 04:12:22;;;;;;;13.40;5.70;;;5.70;82.30;;;;;;5033367;28;20033;-53
2021/01/10 04:14:47;;;;;;;15.32;6.32;;;5.70;82.30;;;;;;5033247;28;20455;-52
2021/01/10 04:17:13;;;;;;;18.75;7.57;;;5.70;82.30;;;;;;5033237;28;20068;-53
2021/01/10 04:19:38;;;;;;;13.27;6.35;;;5.60;82.30;;;;;;5032926;28;20448;-53
2021/01/10 04:22:04;;;;;;;14.30;7.20;;;5.70;82.30;;;;;;5033509;28;20024;-53
2021/01/10 04:24:30;;;;;;;12.07;5.85;;;5.70;82.30;;;;;;5032830;28;20025;-53
2021/01/10 04:26:55;;;;;;;12.05;6.20;;;5.70;82.30;;;;;;5033234;28;20021;-52
2021/01/10 04:29:21;;;;;;;14.48;6.63;;;5.70;82.30;;;;;;5033109;28;20517;-52
2021/01/10 04:31:51;;;;;;;14.73;5.80;;;5.70;82.30;;;;;;5033092;28;20033;-52
2021/01/10 04:34:17;;;;;;;14.35;6.30;;;5.70;82.30;;;;;;5033009;28;20344;-53
2021/01/10 04:36:43;;;;;;;12.48;6.10;;;5.70;83.10;;;;;;5033118;28;20029;-53
2021/01/10 04:39:09;;;;;;;15.88;6.22;;;5.70;82.30;;;;;;5032974;28;20042;-53
2021/01/10 04:41:34;;;;;;;15.50;6.38;;;5.70;82.30;;;;;;5033079;28;20024;-53
2021/01/10 04:44:00;;;;;;;12.13;6.15;;;5.70;82.30;;;;;;5032668;28;20120;-52
2021/01/10 04:46:28;;;;;;;14.98;6.60;;;5.70;82.30;;;;;;5036503;28;20044;-53
2021/01/10 04:48:55;;;;;;;16.33;6.25;;;5.70;82.30;;;;;;5036943;28;20356;-53
2021/01/10 04:51:24;;;;;;;13.00;6.15;;;5.70;82.40;;;;;;5036907;28;20028;-53
2021/01/10 04:53:50;;;;;;;15.15;6.78;;;5.70;82.40;;;;;;5036765;28;20043;-53
2021/01/10 04:56:19;;;;;;;11.27;6.68;;;5.70;82.40;;;;;;5036662;28;20029;-53
2021/01/10 04:58:51;;;;;;;14.15;6.32;;;5.70;82.40;;;;;;5036931;28;20044;-53
2021/01/10 05:01:21;;;;;;;11.25;5.95;;;5.70;82.30;;;;;;5036499;28;20033;-53
2021/01/10 05:03:47;;;;;;;15.90;6.90;;;5.70;82.30;;;;;;5032372;28;20038;-53
2021/01/10 05:06:15;;;;;;;17.42;7.30;;;5.70;82.30;;;;;;5016990;28;20041;-53
2021/01/10 05:08:41;;;;;;;16.92;6.50;;;5.70;82.30;;;;;;5027970;28;20300;-53
2021/01/10 05:11:06;;;;;;;14.35;6.30;;;5.70;82.30;;;;;;5036655;28;20068;-53
2021/01/10 05:13:32;;;;;;;14.00;6.25;;;5.70;82.40;;;;;;5036121;28;20079;-53
2021/01/10 05:15:59;;;;;;;15.20;6.57;;;5.70;82.30;;;;;;5036354;28;20029;-53
2021/01/10 05:18:24;;;;;;;14.05;5.47;;;5.70;82.30;;;;;;5036753;28;20064;-53
2021/01/10 05:20:54;;;;;;;17.17;7.47;;;5.70;82.30;;;;;;5036433;28;20324;-53
2021/01/10 05:23:29;;;;;;;15.43;6.50;;;5.70;82.30;;;;;;5036322;28;20053;-53
2021/01/10 05:26:05;;;;;;;14.00;6.25;;;5.70;82.30;;;;;;5036448;28;20022;-53
2021/01/10 05:28:32;;;;;;;13.38;7.03;;;5.70;82.40;;;;;;5036297;28;20041;-53
2021/01/10 05:31:00;;;;;;;19.67;6.88;;;5.70;82.40;;;;;;5036475;28;20029;-53
2021/01/10 05:33:26;;;;;;;14.07;6.68;;;5.70;82.50;;;;;;5036173;28;20026;-53
2021/01/10 05:35:56;;;;;;;16.45;7.53;;;5.70;82.40;;;;;;5036267;28;20021;-53
2021/01/10 05:38:25;;;;;;;17.38;7.55;;;5.70;82.50;;;;;;5035341;28;20120;-53
2021/01/10 05:40:53;;;;;;;17.58;6.95;;;5.60;82.50;;;;;;5034599;28;20483;-53
2021/01/10 05:43:19;;;;;;;16.40;7.30;;;5.60;82.40;;;;;;5034579;28;20340;-54
2021/01/10 05:45:45;;;;;;;16.98;6.85;;;5.60;82.50;;;;;;5034701;28;20060;-53
2021/01/10 05:48:15;;;;;;;15.98;7.68;;;5.60;82.40;;;;;;5034859;28;20033;-53
2021/01/10 05:50:48;;;;;;;15.15;7.22;;;5.60;82.50;;;;;;5034797;28;20075;-53
2021/01/10 05:53:19;;;;;;;13.95;6.53;;;5.60;82.60;;;;;;5034322;28;20033;-53
2021/01/10 05:55:55;;;;;;;13.48;6.38;;;5.60;82.50;;;;;;5034447;28;20014;-53
2021/01/10 05:58:23;;;;;;;17.02;8.18;;;5.60;82.60;;;;;;5034622;28;20032;-53
2021/01/10 06:00:50;;;;;;;22.35;8.00;;;5.60;82.60;;;;;;5034736;28;20095;-53
2021/01/10 06:03:17;;;;;;;16.85;6.68;;;5.60;82.60;;;;;;5026135;28;20036;-53
2021/01/10 06:06:12;;;;;;;17.10;6.93;;;5.60;82.60;;;;;;5022126;28;20021;-53
2021/01/10 06:08:39;;;;;;;12.32;6.18;;;5.60;82.70;;;;;;5055494;28;20081;-53
2021/01/10 06:11:27;;;;;;;15.50;6.65;;;5.60;82.70;;;;;;5052013;28;20021;-53
2021/01/10 06:13:57;;;;;;;16.10;6.03;;;5.60;82.70;;;;;;5051570;28;20036;-53
2021/01/10 06:16:34;;;;;;;17.38;6.85;;;5.60;82.70;;;;;;5051721;28;20357;-53
2021/01/10 06:19:03;;;;;;;16.50;6.43;;;5.60;82.70;;;;;;5051983;28;20041;-53
2021/01/10 06:21:30;;;;;;;13.65;6.38;;;5.60;82.70;;;;;;5051677;28;20025;-53
2021/01/10 06:24:00;;;;;;;15.57;6.55;;;5.60;82.80;;;;;;5051593;28;20103;-53
2021/01/10 06:26:29;;;;;;;15.30;6.93;;;5.60;82.80;;;;;;5051711;28;20082;-53
2021/01/10 06:28:58;;;;;;;16.50;7.30;;;5.50;82.80;;;;;;5051498;28;20048;-53
2021/01/10 06:31:34;;;;;;;16.45;7.22;;;5.50;82.70;;;;;;5051662;28;20501;-53
2021/01/10 06:34:07;;;;;;;11.38;5.40;;;5.50;82.80;;;;;;5051507;28;20033;-53
2021/01/10 06:36:41;;;;;;;13.77;6.40;;;5.50;83.50;;;;;;5051633;28;20025;-53
2021/01/10 06:39:12;;;;;;;13.20;6.32;;;5.50;82.80;;;;;;5031306;28;644084;-53
2021/01/10 06:41:53;;;;;;;12.55;6.15;;;5.50;82.80;;;;;;5057783;28;20032;-53
2021/01/10 06:44:19;;;;;;;;;;;5.50;82.80;;;;;;5057618;28;20064;-53
2021/01/10 06:46:49;;;;;;;14.00;6.20;;;5.50;82.90;;;;;;5022792;28;19909;-53
2021/01/10 06:49:15;;;;;;;16.35;6.20;;;5.50;82.80;;;;;;5025413;28;20040;-53
2021/01/10 06:51:51;;;;;;;13.95;6.13;;;5.50;82.90;;;;;;5023232;28;20026;-53
2021/01/10 06:54:17;;;;;;;13.70;6.25;;;5.50;82.90;;;;;;5022515;28;20079;-53
2021/01/10 06:56:49;;;;;;;12.10;5.47;;;5.50;82.90;;;;;;5020118;28;20026;-53
2021/01/10 06:59:26;;;;;;;12.23;5.82;;;5.50;82.90;;;;;;5024771;28;20100;-52
2021/01/10 07:01:51;;;;;;;18.08;6.22;;;5.50;83.00;;;;;;5020806;28;20032;-53
2021/01/10 07:04:18;;;;;;;14.90;6.20;;;5.50;82.90;;;;;;5023339;28;20124;-53
2021/01/10 07:06:48;;;;;;;11.68;5.45;;;5.40;82.90;;;;;;5028470;28;20025;-53
2021/01/10 07:09:15;;;;;;;18.20;6.35;;;5.50;83.00;;;;;;5029473;28;20087;-53
2021/01/10 07:11:41;;;;;;;9.25;5.20;;;5.50;82.90;;;;;;5021626;28;20033;-53
2021/01/10 07:14:13;;;;;;;10.75;6.15;;;5.40;82.90;;;;;;5017997;28;20370;-53
2021/01/10 07:16:40;;;;;;;13.32;5.38;;;5.40;82.90;;;;;;5023310;28;20446;-52
2021/01/10 07:19:07;;;;;;;12.55;6.25;;;5.50;82.90;;;;;;5023674;28;20087;-52
2021/01/10 07:21:42;;;;;;;8.70;5.07;;;5.50;82.90;;;;;;5023524;28;20037;-52
2021/01/10 07:24:16;;;;;;;15.63;6.32;;;5.50;82.90;;;;;;5021176;28;20030;-53
2021/01/10 07:26:54;;;;;;;12.20;5.68;;;5.40;82.90;;;;;;5020705;28;20500;-53
2021/01/10 07:29:33;;;;;;;12.13;5.40;;;5.50;82.90;;;;;;5026114;28;20095;-53
2021/01/10 07:32:10;;;;;;;10.00;5.30;;;5.50;82.90;;;;;;5026023;28;20018;-53
2021/01/10 07:34:45;;;;;;;11.23;5.03;;;5.50;82.90;;;;;;5025291;28;20032;-53
2021/01/10 07:37:33;;;;;;;10.25;5.35;;;5.50;83.60;;;;;;5022533;28;20026;-53
2021/01/10 07:40:07;;;;;;;9.55;4.50;;;5.50;82.90;;;;;;5027147;28;20022;-53
2021/01/10 07:42:36;;;;;;;11.27;4.43;;;5.50;82.80;;;;;;5022174;28;20097;-53
2021/01/10 07:45:20;;;;;;;11.73;5.33;;;5.50;82.70;;;;;;5017321;28;20092;-53
2021/01/10 07:47:52;;;;;;;10.57;4.90;;;5.50;82.70;;;;;;5014446;28;20030;-53
2021/01/10 07:50:20;;;;;;;10.38;4.55;;;5.50;82.70;;;;;;5023716;28;20105;-53
2021/01/10 07:52:58;;;;;;;9.70;4.88;;;5.50;82.70;;;;;;5021226;28;20032;-53
2021/01/10 07:55:26;;;;;;;13.75;5.65;;;5.60;82.80;;;;;;5022214;28;20044;-53
2021/01/10 07:58:01;;;;;;;11.98;5.50;;;5.50;82.70;;;;;;5022400;28;20219;-53
2021/01/10 08:00:28;;;;;;;9.55;4.82;;;5.60;82.70;;;;;;5018562;28;20037;-53
2021/01/10 08:03:03;;;;;;;11.27;5.18;;;5.60;82.70;;;;;;5019362;28;20081;-53
2021/01/10 08:05:32;;;;;;;12.55;5.13;;;5.60;82.70;;;;;;5022925;28;20037;-53
2021/01/10 08:08:42;;;;;;;13.57;6.40;;;5.60;82.70;;;;;;5018779;28;20463;-53
2021/01/10 08:11:08;;;;;;;13.10;4.85;;;5.60;82.70;;;;;;5012988;28;20038;-53
2021/01/10 08:13:43;;;;;;;8.98;5.05;;;5.60;82.70;;;;;;5013140;28;20452;-53
2021/01/10 08:16:28;;;;;;;12.57;5.35;;;5.60;82.60;;;;;;5019930;28;20084;-53
2021/01/10 08:18:59;;;;;;;11.95;6.35;;;5.60;82.60;;;;;;5024012;28;20405;-52
2021/01/10 08:21:26;;;;;;;12.52;5.20;;;5.60;82.50;;;;;;5022874;28;20026;-53
2021/01/10 08:23:55;;;;;;;12.30;5.55;;;5.70;82.60;;;;;;5023796;28;20084;-53
2021/01/10 08:26:21;;;;;;;12.52;5.45;;;5.70;82.60;;;;;;5024073;28;20378;-52
2021/01/10 08:28:49;;;;;;;10.52;5.47;;;5.70;82.50;;;;;;5020967;28;20037;-53
2021/01/10 08:31:17;;;;;;;12.20;6.25;;;5.70;82.50;;;;;;5023833;28;20022;-53
2021/01/10 08:33:43;;;;;;;11.30;5.88;;;5.70;82.50;;;;;;5021478;28;20033;-53
2021/01/10 08:36:12;;;;;;;10.95;5.63;;;5.70;82.40;;;;;;5023393;28;20029;-53
2021/01/10 08:39:13;;;;;;;8.70;4.97;;;5.80;82.40;;;;;;5020517;28;20119;-53
2021/01/10 08:41:45;;;;;;;14.98;6.45;;;5.80;82.40;;;;;;5029206;28;20459;-53
2021/01/10 08:44:21;;;;;;;11.88;5.32;;;5.70;82.40;;;;;;5031084;28;20033;-53
2021/01/10 08:46:51;;;;;;;14.40;6.10;;;5.70;82.30;;;;;;5027375;28;20128;-53
2021/01/10 08:49:24;;;;;;;13.57;5.65;;;5.80;82.40;;;;;;5030801;28;20041;-53
2021/01/10 08:51:50;;;;;;;14.68;6.47;;;5.80;82.40;;;;;;5030673;28;20188;-53
2021/01/10 08:54:19;;;;;;;11.32;6.68;;;5.80;82.50;;;;;;5030353;28;20553;-52
2021/01/10 08:56:53;;;;;;;12.13;6.07;;;5.80;82.30;;;;;;5030152;28;20462;-53
2021/01/10 08:59:19;;;;;;;10.98;5.53;;;5.80;82.30;;;;;;5030397;28;20219;-52
2021/01/10 09:01:45;;;;;;;15.05;6.32;;;5.80;82.20;;;;;;5030635;28;20101;-53
2021/01/10 09:04:13;;;;;;;19.73;8.73;;;5.80;82.10;;;;;;5030183;28;20068;-53
2021/01/10 09:06:59;;;;;;;15.55;7.00;;;5.80;82.00;;;;;;5030524;28;20126;-53
2021/01/10 09:09:30;;;;;;;19.60;8.52;;;5.80;82.10;;;;;;5029672;28;20120;-52
2021/01/10 09:12:05;;;;;;;15.80;7.45;;;5.80;82.00;;;;;;5021997;28;20038;-52
2021/01/10 09:14:53;;;;;;;18.75;8.07;;;5.80;82.00;;;;;;5020208;28;20022;-53
2021/01/10 09:17:25;;;;;;;15.75;6.90;;;5.90;82.10;;;;;;5025643;28;20054;-53
2021/01/10 09:19:54;;;;;;;17.90;7.95;;;5.90;82.80;;;;;;5016006;28;20419;-53
2021/01/10 09:22:25;;;;;;;19.27;8.45;;;5.80;82.00;;;;;;5022006;28;20075;-53
2021/01/10 09:24:50;;;;;;;18.77;7.70;;;5.90;82.10;;;;;;5019323;28;20048;-52
2021/01/10 09:27:16;;;;;;;24.08;9.75;;;5.90;82.10;;;;;;5020381;28;20463;-53
2021/01/10 09:29:43;;;;;;;19.88;7.72;;;5.90;82.00;;;;;;5024726;28;20179;-53
2021/01/10 09:32:21;;;;;;;15.95;8.02;;;5.90;82.10;;;;;;5026121;28;20041;-53
2021/01/10 09:34:54;;;;;;;14.98;6.25;;;5.90;81.90;;;;;;5025252;28;20041;-53
2021/01/10 09:37:26;;;;;;;12.50;6.43;;;5.90;81.90;;;;;;5025425;28;20462;-53
2021/01/10 09:39:52;;;;;;;19.13;7.45;;;5.90;81.90;;;;;;5026477;28;20143;-53
2021/01/10 09:42:19;;;;;;;21.90;7.82;;;5.90;81.90;;;;;;5027254;28;20108;-53
2021/01/10 09:44:54;;;;;;;17.38;8.30;;;6.00;81.90;;;;;;5028762;28;20506;-53
2021/01/10 09:47:36;;;;;;;16.08;7.47;;;6.00;81.80;;;;;;5016848;28;20034;-53
2021/01/10 09:50:13;;;;;;;18.02;7.80;;;6.00;81.70;;;;;;5033315;28;20109;-53
2021/01/10 09:52:46;;;;;;;16.15;8.10;;;6.00;81.70;;;;;;5035980;28;20025;-53
2021/01/10 09:55:11;;;;;;;21.17;8.65;;;6.00;81.70;;;;;;5035678;28;20036;-53
2021/01/10 09:57:39;;;;;;;16.95;7.32;;;6.00;81.70;;;;;;5035674;28;20025;-53
2021/01/10 10:00:08;;;;;;;16.65;7.63;;;6.00;81.70;;;;;;5035370;28;20075;-53
2021/01/10 10:02:37;;;;;;;20.58;8.43;;;6.00;81.60;;;;;;5035683;28;20448;-53
2021/01/10 10:05:09;;;;;;;17.33;7.20;;;6.00;81.60;;;;;;5032629;28;20034;-53
2021/01/10 10:07:46;;;;;;;19.95;7.80;;;6.10;81.60;;;;;;5015262;28;20041;-53
2021/01/10 10:10:22;;;;;;;21.45;8.40;;;6.10;81.50;;;;;;5031990;28;20389;-53
2021/01/10 10:12:59;;;;;;;20.13;9.15;;;6.10;81.50;;;;;;5035030;28;20362;-53
2021/01/10 10:15:45;;;;;;;17.65;7.88;;;6.10;81.40;;;;;;5034945;28;20026;-53
2021/01/10 10:18:27;;;;;;;15.40;7.65;;;6.20;81.40;;;;;;5034844;28;20340;-53
2021/01/10 10:20:53;;;;;;;15.90;7.70;;;6.20;81.40;;;;;;5030383;28;20483;-53
2021/01/10 10:23:19;;;;;;;21.70;8.70;;;6.20;81.30;;;;;;5026330;28;20026;-53
2021/01/10 10:25:52;;;;;;;16.20;6.43;;;6.30;81.30;;;;;;5035032;28;20025;-52
2021/01/10 10:28:20;;;;;;;16.23;6.68;;;6.30;81.30;;;;;;5034724;28;20394;-53
2021/01/10 10:30:46;;;;;;;18.73;7.90;;;6.30;81.20;;;;;;5035212;28;20025;-53
2021/01/10 10:33:12;;;;;;;17.45;7.63;;;6.30;81.10;;;;;;5034592;28;20025;-53
2021/01/10 10:35:39;;;;;;;16.08;8.13;;;6.40;81.20;;;;;;5027579;28;20022;-53
2021/01/10 10:38:05;;;;;;;19.90;8.52;;;6.40;81.20;;;;;;5030325;28;20454;-53
2021/01/10 10:40:31;;;;;;;23.42;8.77;;;6.40;81.20;;;;;;5035010;28;20025;-53
2021/01/10 10:42:57;;;;;;;19.55;8.43;;;6.50;81.20;;;;;;5033474;28;20061;-53
2021/01/10 10:45:22;;;;;;;14.88;7.10;;;6.50;81.20;;;;;;5022949;28;20073;-53
2021/01/10 10:47:48;;;;;;;16.88;8.10;;;6.50;81.20;;;;;;5014663;28;20026;-53
2021/01/10 10:50:14;;;;;;;16.92;7.65;;;6.50;81.20;;;;;;5013181;28;20034;-53
2021/01/10 10:52:43;;;;;;;21.08;8.63;;;6.50;81.10;;;;;;5014067;28;20022;-53
2021/01/10 10:55:12;;;;;;;16.92;8.77;;;6.50;81.10;;;;;;5017104;28;20488;-52
2021/01/10 10:57:40;;;;;;;18.73;8.60;;;6.50;81.20;;;;;;5034528;28;20370;-53
2021/01/10 11:00:06;;;;;;;17.80;7.85;;;6.50;81.20;;;;;;5034525;28;20026;-53
2021/01/10 11:02:32;;;;;;;19.23;8.82;;;6.50;81.00;;;;;;5034206;28;20031;-53
2021/01/10 11:04:58;;;;;;;19.27;8.80;;;6.50;81.10;;;;;;5034197;28;20371;-53
2021/01/10 11:07:23;;;;;;;18.40;8.65;;;6.50;81.00;;;;;;5034448;28;20546;-53
2021/01/10 11:09:49;;;;;;;21.23;9.70;;;6.50;81.00;;;;;;5034613;28;20029;-53
2021/01/10 11:12:15;;;;;;;23.65;9.35;;;6.50;81.10;;;;;;5034184;28;20439;-53
2021/01/10 11:14:41;;;;;;;13.55;6.53;;;6.50;81.10;;;;;;5034154;28;20030;-53
2021/01/10 11:17:09;;;;;;;20.30;8.63;;;6.50;81.20;;;;;;5034013;28;20056;-53
2021/01/10 11:19:35;;;;;;;23.13;9.57;;;6.50;81.10;;;;;;5034502;28;20022;-53
2021/01/10 11:22:03;;;;;;;22.25;8.75;;;6.50;81.20;;;;;;5032179;28;20071;-54
2021/01/10 11:24:30;;;;;;;17.02;8.32;;;6.50;81.20;;;;;;5012204;28;20533;-53
2021/01/10 11:26:55;;;;;;;17.02;8.57;;;6.50;81.30;;;;;;5013103;28;20117;-53
2021/01/10 11:29:21;;;;;;;19.73;8.05;;;6.50;81.20;;;;;;5014219;28;20435;-53
2021/01/10 11:31:47;;;;;;;24.27;9.57;;;6.50;81.30;;;;;;5014166;28;20400;-53
2021/01/10 11:34:14;;;;;;;23.80;10.70;;;6.50;81.30;;;;;;5014037;28;20470;-52
2021/01/10 11:36:45;;;;;;;21.20;9.13;;;6.50;81.20;;;;;;5032122;28;20025;-53
2021/01/10 11:39:12;;;;;;;18.23;8.25;;;6.50;81.20;;;;;;5033754;28;20039;-53
2021/01/10 11:41:45;;;;;;;21.20;8.82;;;6.50;81.40;;;;;;5027110;28;20092;-53
2021/01/10 11:44:11;;;;;;;18.20;7.82;;;6.50;81.50;;;;;;5021147;28;20355;-53
2021/01/10 11:46:40;;;;;;;19.83;8.93;;;6.40;81.30;;;;;;5031991;28;20024;-53
2021/01/10 11:49:05;;;;;;;21.83;9.57;;;6.40;81.30;;;;;;5028393;28;20120;-53
2021/01/10 11:51:31;;;;;;;22.30;10.95;;;6.40;81.40;;;;;;5033747;28;20104;-53
2021/01/10 11:53:57;;;;;;;20.13;8.95;;;6.40;81.40;;;;;;5032964;28;20061;-53
2021/01/10 11:56:22;;;;;;;20.13;9.57;;;6.40;81.40;;;;;;5033527;28;20026;-53
2021/01/10 11:58:48;;;;;;;20.38;8.93;;;6.40;81.50;;;;;;5033232;28;20025;-53
2021/01/10 12:01:13;;;;;;;21.25;9.02;;;6.40;81.50;;;;;;5033638;28;20075;-53
2021/01/10 12:03:42;;;;;;;21.45;9.68;;;6.40;81.60;;;;;;5033275;28;20079;-53
2021/01/10 12:06:07;;;;;;;22.40;10.98;;;6.40;81.50;;;;;;5033554;28;20040;-53
2021/01/10 12:08:33;;;;;;;19.23;8.32;;;6.40;81.60;;;;;;5033400;28;20038;-52
2021/01/10 12:10:59;;;;;;;18.20;8.50;;;6.40;81.50;;;;;;5020930;28;20021;-53
2021/01/10 12:13:25;;;;;;;23.27;10.80;;;6.40;81.60;;;;;;5013106;28;20033;-52
2021/01/10 12:15:51;;;;;;;22.13;8.85;;;6.40;81.70;;;;;;5013468;28;20022;-52
2021/01/10 12:18:17;;;;;;;22.02;9.68;;;6.40;81.80;;;;;;5031666;28;20025;-53
2021/01/10 12:20:43;;;;;;;17.05;8.25;;;6.40;81.80;;;;;;5033212;28;20477;-53
2021/01/10 12:23:11;;;;;;;15.95;7.25;;;6.40;81.80;;;;;;5033505;28;20056;-53
2021/01/10 12:25:36;;;;;;;15.65;7.78;;;6.30;81.70;;;;;;5033048;28;20560;-53
2021/01/10 12:28:02;;;;;;;15.43;7.85;;;6.30;81.80;;;;;;5032898;28;20454;-53
2021/01/10 12:30:28;;;;;;;17.75;6.75;;;6.30;81.70;;;;;;5033271;28;20028;-53
2021/01/10 12:32:57;;;;;;;18.58;7.05;;;6.30;81.70;;;;;;5033400;28;20030;-53
2021/01/10 12:35:23;;;;;;;18.27;8.23;;;6.30;81.70;;;;;;5032831;28;20418;-53
2021/01/10 12:37:49;;;;;;;17.92;7.95;;;6.30;81.70;;;;;;5032917;28;20065;-53
2021/01/10 12:40:17;;;;;;;19.20;9.23;;;6.30;81.70;;;;;;5033029;28;20092;-53
2021/01/10 12:42:43;;;;;;;22.52;9.68;;;6.30;81.70;;;;;;5033318;28;20022;-53
2021/01/10 12:45:12;;;;;;;20.90;9.10;;;6.30;81.70;;;;;;5032673;28;20053;-53
2021/01/10 12:47:46;;;;;;;26.85;9.50;;;6.30;81.80;;;;;;5032979;28;20348;-53
2021/01/10 12:50:15;;;;;;;19.83;8.65;;;6.30;81.80;;;;;;5032855;28;20117;-53
2021/01/10 12:52:42;;;;;;;18.33;8.53;;;6.30;81.80;;;;;;5015816;28;20030;-53
2021/01/10 12:55:08;;;;;;;19.25;7.53;;;6.30;81.80;;;;;;5021706;28;20279;-53
2021/01/10 12:57:35;;;;;;;19.05;8.52;;;6.30;81.70;;;;;;5021645;28;20464;-53